San Pedro Sula, Honduras
Current Conditions -  °F | °C
As of 10:00 PM on Wednesday 17 Dec 2014 (Local Time) from MHLM Reporting Station
Broken Clouds Broken Clouds  
Wind Chill: 72°   Ceiling: 8000
Heat Index: 72°   Visibility: 6mi
Dew Point: 72°   Wind: 3mph
Humidity: 100%   Direction: 320°NW
Pressure: 30.09"   Gusts: NA
Location:  15.47°N, 88.03°W
Report Text: MHLM 180400Z 32003KT 9999 FEW025 BKN080 22/22 Q1019 A3009NOSIG
Loading
Personal Weather Stations






























Interactive Weather Map New forecast layout! Learn more

10-Day Weather Forecast

Advertisements
Track Severe Weather on mobile